createdAt,value
2022-11-21T00:00:15.631Z,0.95
2022-11-21T00:03:03.385Z,1.40
2022-11-21T00:05:54.266Z,1.35
2022-11-21T00:08:41.959Z,0.82
2022-11-21T00:11:29.647Z,0.98
2022-11-21T00:14:17.231Z,1.45
2022-11-21T00:17:04.882Z,1.38
2022-11-21T00:19:52.614Z,1.60
2022-11-21T00:22:40.302Z,1.17
2022-11-21T00:25:27.991Z,1.85
2022-11-21T00:28:15.728Z,1.48
2022-11-21T00:31:04.580Z,2.80
2022-11-21T00:33:52.232Z,1.27
2022-11-21T00:36:39.858Z,1.42
2022-11-21T00:39:27.811Z,1.10
2022-11-21T00:42:15.486Z,1.38
2022-11-21T00:45:03.623Z,1.25
2022-11-21T00:47:51.244Z,1.23
2022-11-21T00:50:39.012Z,1.05
2022-11-21T00:53:26.616Z,0.95
2022-11-21T00:56:14.344Z,1.40
2022-11-21T00:59:02.111Z,1.48
2022-11-21T01:01:49.863Z,1.52
2022-11-21T01:04:40.424Z,1.60
2022-11-21T01:07:28.038Z,1.67
2022-11-21T01:10:15.881Z,1.70
2022-11-21T01:13:03.781Z,1.80
2022-11-21T01:15:51.452Z,1.58
2022-11-21T01:18:39.111Z,1.77
2022-11-21T01:21:31.472Z,1.80
2022-11-21T01:24:19.207Z,1.30
2022-11-21T01:27:06.862Z,1.63
2022-11-21T01:29:54.695Z,1.63
2022-11-21T01:32:42.363Z,2.10
2022-11-21T01:35:30.137Z,1.50
2022-11-21T01:38:17.823Z,1.63
2022-11-21T01:41:05.760Z,1.67
2022-11-21T01:43:53.469Z,1.20
2022-11-21T01:46:41.250Z,1.38
2022-11-21T01:49:33.026Z,1.20
2022-11-21T01:52:29.911Z,1.00
2022-11-21T01:55:18.175Z,1.52
2022-11-21T01:58:06.327Z,1.25
2022-11-21T02:00:54.138Z,1.80
2022-11-21T02:03:44.296Z,1.00
2022-11-21T02:06:33.799Z,1.23
2022-11-21T02:09:22.295Z,1.42
2022-11-21T02:12:26.588Z,1.60
2022-11-21T02:15:14.852Z,1.40
2022-11-21T02:18:09.243Z,1.02
2022-11-21T02:21:10.529Z,1.55
2022-11-21T02:24:05.362Z,1.80
2022-11-21T02:26:53.105Z,1.65
2022-11-21T02:29:40.967Z,1.55
2022-11-21T02:32:38.053Z,2.10
2022-11-21T02:35:26.142Z,2.00
2022-11-21T02:38:37.889Z,1.55
2022-11-21T02:41:28.097Z,2.35
2022-11-21T02:45:01.086Z,2.72
2022-11-21T02:47:51.603Z,2.85
2022-11-21T02:50:44.590Z,2.88
2022-11-21T02:53:32.396Z,2.85
2022-11-21T02:56:20.155Z,2.47
2022-11-21T02:59:08.112Z,2.85
2022-11-21T03:01:59.949Z,3.75
2022-11-21T03:04:50.031Z,4.55
2022-11-21T03:07:38.103Z,4.30
2022-11-21T03:10:25.991Z,4.22
2022-11-21T03:13:17.567Z,4.38
2022-11-21T03:16:05.190Z,4.30
2022-11-21T03:18:52.955Z,5.05
2022-11-21T03:21:40.724Z,8.15
2022-11-21T03:24:28.737Z,6.28
2022-11-21T03:27:16.551Z,4.63
2022-11-21T03:30:04.811Z,4.43
2022-11-21T03:32:55.870Z,6.32
2022-11-21T03:35:43.669Z,5.43
2022-11-21T03:38:31.235Z,1.70
2022-11-21T03:41:31.143Z,1.48
2022-11-21T03:44:18.789Z,0.70
2022-11-21T03:47:06.539Z,0.75
2022-11-21T03:49:54.367Z,0.22
2022-11-21T03:52:42.115Z,0.68
2022-11-21T03:55:29.799Z,0.40
2022-11-21T03:58:17.570Z,0.60
2022-11-21T04:01:05.740Z,0.30
2022-11-21T04:03:53.739Z,0.28
2022-11-21T04:06:41.443Z,0.15
2022-11-21T04:09:29.251Z,0.40
2022-11-21T04:12:19.246Z,0.20
2022-11-21T04:15:12.164Z,0.40
2022-11-21T04:18:01.190Z,0.15
2022-11-21T04:21:03.547Z,0.05
2022-11-21T04:26:41.289Z,0.08
2022-11-21T04:29:29.005Z,0.28
2022-11-21T04:32:16.770Z,0.22
2022-11-21T04:35:04.859Z,0.00
2022-11-21T04:37:52.949Z,0.00
2022-11-21T04:40:41.071Z,0.05
2022-11-21T04:43:31.259Z,0.30
2022-11-21T04:46:19.024Z,0.00
2022-11-21T04:49:06.723Z,0.00
2022-11-21T04:51:54.682Z,0.00
2022-11-21T04:54:42.458Z,0.10
2022-11-21T04:57:33.419Z,0.10
2022-11-21T05:00:26.743Z,0.00
2022-11-21T05:03:17.058Z,0.20
2022-11-21T05:06:04.897Z,0.13
2022-11-21T05:08:54.218Z,0.20
2022-11-21T05:12:00.569Z,0.30
2022-11-21T05:14:48.307Z,0.70
2022-11-21T05:17:36.438Z,0.30
2022-11-21T05:20:25.500Z,0.30
2022-11-21T05:23:13.317Z,0.77
2022-11-21T05:26:00.970Z,0.77
2022-11-21T05:28:48.986Z,1.15
2022-11-21T05:31:36.658Z,1.20
2022-11-21T05:34:24.358Z,1.35
2022-11-21T05:37:12.051Z,3.20
2022-11-21T05:40:00.069Z,4.47
2022-11-21T05:43:06.601Z,1.13
2022-11-21T05:45:54.225Z,0.35
2022-11-21T05:48:41.952Z,0.20
2022-11-21T05:51:30.728Z,0.00
2022-11-21T05:54:21.222Z,0.20
2022-11-21T05:57:08.893Z,0.10
2022-11-21T05:59:59.136Z,0.13
2022-11-21T06:03:06.970Z,0.05
2022-11-21T06:06:12.155Z,0.20
2022-11-21T06:09:03.044Z,0.20
2022-11-21T06:11:53.729Z,0.20
2022-11-21T06:14:41.595Z,0.10
2022-11-21T06:17:29.207Z,0.20
2022-11-21T06:20:17.307Z,0.25
2022-11-21T06:23:04.946Z,0.20
2022-11-21T06:25:57.461Z,0.20
2022-11-21T06:28:46.412Z,0.00
2022-11-21T06:31:34.130Z,0.17
2022-11-21T06:34:21.794Z,0.10
2022-11-21T06:37:11.986Z,0.15
2022-11-21T06:40:00.333Z,0.22
2022-11-21T06:42:48.159Z,0.00
2022-11-21T06:45:35.981Z,0.00
2022-11-21T06:48:23.928Z,0.00
2022-11-21T06:51:21.734Z,0.00
2022-11-21T06:54:16.605Z,0.10
2022-11-21T06:57:04.581Z,0.00
2022-11-21T06:59:52.433Z,0.10
2022-11-21T07:02:43.141Z,0.00
2022-11-21T07:05:31.536Z,0.00
2022-11-21T07:08:22.072Z,0.00
2022-11-21T07:11:28.272Z,0.00
2022-11-21T07:14:17.793Z,0.00
2022-11-21T07:17:05.514Z,0.00
2022-11-21T07:19:53.257Z,0.00
2022-11-21T07:22:40.973Z,0.10
2022-11-21T07:25:31.350Z,0.00
2022-11-21T07:28:23.142Z,0.00
2022-11-21T07:31:13.838Z,0.00
2022-11-21T07:34:01.919Z,0.00
2022-11-21T07:36:49.531Z,0.63
2022-11-21T07:39:37.211Z,0.00
2022-11-21T07:42:24.883Z,0.10
2022-11-21T07:45:13.574Z,0.00
2022-11-21T07:48:02.565Z,0.10
2022-11-21T07:50:52.633Z,0.10
2022-11-21T07:53:47.589Z,0.00
2022-11-21T07:56:42.504Z,0.00
2022-11-21T07:59:30.417Z,0.28
2022-11-21T08:02:24.538Z,0.00
2022-11-21T08:05:12.138Z,0.40
2022-11-21T08:07:59.863Z,0.35
2022-11-21T08:10:47.774Z,0.10
2022-11-21T08:13:35.930Z,0.20
2022-11-21T08:16:24.681Z,0.22
2022-11-21T08:19:12.540Z,0.20
2022-11-21T08:22:00.565Z,0.30
2022-11-21T08:24:48.289Z,0.00
2022-11-21T08:27:38.559Z,0.10
2022-11-21T08:30:27.100Z,0.35
2022-11-21T08:33:14.846Z,0.57
2022-11-21T08:36:07.071Z,0.35
2022-11-21T08:38:54.726Z,0.00
2022-11-21T08:42:00.937Z,0.00
2022-11-21T08:44:48.458Z,0.00
2022-11-21T08:47:36.226Z,0.00
2022-11-21T08:50:24.809Z,0.00
2022-11-21T08:53:12.630Z,0.00
2022-11-21T08:56:04.018Z,0.00
2022-11-21T08:58:52.569Z,0.00
2022-11-21T09:01:40.439Z,0.00
2022-11-21T09:04:28.602Z,0.00
2022-11-21T09:07:16.528Z,0.00
2022-11-21T09:10:04.858Z,0.00
2022-11-21T09:12:53.907Z,0.00
2022-11-21T09:15:59.821Z,0.00
2022-11-21T09:18:47.929Z,0.00
2022-11-21T09:21:35.824Z,0.10
2022-11-21T09:24:23.478Z,0.00
2022-11-21T09:27:11.126Z,0.00
2022-11-21T09:29:58.726Z,0.00
2022-11-21T09:32:46.503Z,0.00
2022-11-21T09:35:34.606Z,0.00
2022-11-21T09:38:24.215Z,0.00
2022-11-21T09:41:42.278Z,0.13
2022-11-21T09:44:44.728Z,0.00
2022-11-21T09:47:35.149Z,0.00
2022-11-21T09:50:35.096Z,0.00
2022-11-21T09:53:28.457Z,0.52
2022-11-21T09:56:23.522Z,0.10
2022-11-21T09:59:33.751Z,0.10
2022-11-21T10:02:24.381Z,0.10
2022-11-21T10:05:15.863Z,0.52
2022-11-21T10:08:15.057Z,0.22
2022-11-21T10:11:24.506Z,0.20
2022-11-21T10:14:24.053Z,0.25
2022-11-21T10:17:39.024Z,0.00
2022-11-21T10:20:51.606Z,0.00
2022-11-21T10:23:46.666Z,0.00
2022-11-21T10:26:42.671Z,0.00
2022-11-21T10:29:41.836Z,0.00
2022-11-21T10:32:39.107Z,0.10
2022-11-21T10:35:37.023Z,0.20
2022-11-21T10:38:27.039Z,0.00
2022-11-21T10:41:40.282Z,0.00
2022-11-21T10:44:48.163Z,0.00
2022-11-21T10:47:38.036Z,0.00
2022-11-21T10:50:33.162Z,0.10
2022-11-21T10:53:45.447Z,0.00
2022-11-21T10:56:36.446Z,0.00
2022-11-21T10:59:30.775Z,0.00
2022-11-21T11:02:18.949Z,0.00
2022-11-21T11:05:18.576Z,0.00
2022-11-21T11:08:14.644Z,0.00
2022-11-21T11:11:15.413Z,0.00
2022-11-21T11:14:06.351Z,0.00
2022-11-21T11:16:54.220Z,0.00
2022-11-21T11:20:01.103Z,0.00
2022-11-21T11:22:48.766Z,0.08
2022-11-21T11:25:37.058Z,0.00
2022-11-21T11:28:35.597Z,0.20
2022-11-21T11:31:23.664Z,0.00
2022-11-21T11:34:15.593Z,0.00
2022-11-21T11:37:13.184Z,0.00
2022-11-21T11:40:21.591Z,0.00
2022-11-21T11:43:30.768Z,0.00
2022-11-21T11:46:49.800Z,0.00
2022-11-21T11:50:04.369Z,0.00
2022-11-21T11:53:16.985Z,0.00
2022-11-21T11:56:16.928Z,0.00
2022-11-21T11:59:18.988Z,0.00
2022-11-21T12:02:18.835Z,4.78
2022-11-21T12:05:23.002Z,8.82
2022-11-21T12:08:41.324Z,1.55
2022-11-21T12:12:08.676Z,4.15
2022-11-21T12:15:40.570Z,1.40
2022-11-21T12:18:40.420Z,0.05
2022-11-21T12:21:29.270Z,0.15
2022-11-21T12:24:21.143Z,0.22
2022-11-21T12:27:21.435Z,0.00
2022-11-21T12:30:48.392Z,0.00
2022-11-21T12:33:47.779Z,0.00
2022-11-21T12:36:51.410Z,0.10
2022-11-21T12:39:56.930Z,0.00
2022-11-21T12:42:50.554Z,0.30
2022-11-21T12:45:40.608Z,0.00
2022-11-21T12:48:49.726Z,0.00
2022-11-21T12:52:01.867Z,0.25
2022-11-21T12:55:11.348Z,0.00
2022-11-21T12:58:23.491Z,0.08
2022-11-21T13:01:23.802Z,0.00
2022-11-21T13:04:35.433Z,0.00
2022-11-21T13:07:25.491Z,0.40
2022-11-21T13:10:17.141Z,0.25
2022-11-21T13:13:29.683Z,1.00
2022-11-21T13:19:42.633Z,0.20
2022-11-21T13:22:36.375Z,0.10
2022-11-21T13:25:33.131Z,2.03
2022-11-21T13:28:21.340Z,0.10
2022-11-21T13:31:28.751Z,0.10
2022-11-21T13:34:38.609Z,0.20
2022-11-21T13:38:04.255Z,0.15
2022-11-21T13:41:10.332Z,0.10
2022-11-21T13:44:37.937Z,0.10
2022-11-21T13:48:13.512Z,0.13
2022-11-21T13:51:04.236Z,0.10
2022-11-21T13:54:20.856Z,0.10
2022-11-21T13:57:25.874Z,0.15
2022-11-21T14:00:18.593Z,0.20
2022-11-21T14:03:34.120Z,0.13
2022-11-21T14:06:36.763Z,0.10
2022-11-21T14:09:48.971Z,0.10
2022-11-21T14:12:44.846Z,0.30
2022-11-21T14:16:09.758Z,0.50
2022-11-21T14:18:58.559Z,0.40
2022-11-21T14:21:47.515Z,0.30
2022-11-21T14:24:35.411Z,0.47
2022-11-21T14:27:32.723Z,0.73
2022-11-21T14:30:31.009Z,0.32
2022-11-21T14:33:32.445Z,0.35
2022-11-21T14:36:25.825Z,0.30
2022-11-21T14:42:35.567Z,0.40
2022-11-21T14:45:24.553Z,0.32
2022-11-21T14:48:13.374Z,4.30
2022-11-21T14:51:04.560Z,1.77
2022-11-21T14:53:53.941Z,1.20
2022-11-21T14:56:42.409Z,0.60
2022-11-21T14:59:44.397Z,0.60
2022-11-21T15:02:33.485Z,0.68
2022-11-21T15:11:52.456Z,1.05
2022-11-21T15:14:48.974Z,1.48
2022-11-21T15:17:47.729Z,1.35
2022-11-21T15:20:49.942Z,1.48
2022-11-21T15:23:40.468Z,2.10
2022-11-21T15:26:34.076Z,1.35
2022-11-21T15:29:22.624Z,1.65
2022-11-21T15:32:16.940Z,0.90
2022-11-21T15:35:43.252Z,0.70
2022-11-21T15:38:49.179Z,1.38
2022-11-21T15:41:37.788Z,1.08
2022-11-21T15:44:25.677Z,1.35
2022-11-21T15:47:13.527Z,3.65
2022-11-21T15:50:01.354Z,1.75
2022-11-21T15:52:51.098Z,8.65
2022-11-21T15:55:38.718Z,3.80
2022-11-21T15:57:14.646Z,0.73
2022-11-21T15:58:26.435Z,9.65
2022-11-21T16:01:20.543Z,10.43
2022-11-21T16:04:11.274Z,24.52
2022-11-21T16:06:58.875Z,13.40
2022-11-21T16:09:47.872Z,16.85
2022-11-21T16:12:35.895Z,10.88
2022-11-21T16:15:24.051Z,6.32
2022-11-21T16:18:11.875Z,2.58
2022-11-21T16:21:09.946Z,1.20
2022-11-21T16:23:57.879Z,1.17
2022-11-21T16:26:45.549Z,1.63
2022-11-21T16:29:36.357Z,1.50
2022-11-21T16:32:26.214Z,2.08
2022-11-21T16:35:14.114Z,2.45
2022-11-21T16:38:01.776Z,2.72
2022-11-21T16:41:00.439Z,3.00
2022-11-21T16:43:53.841Z,1.30
2022-11-21T16:46:47.411Z,2.40
2022-11-21T16:49:35.211Z,2.58
2022-11-21T16:52:23.002Z,2.15
2022-11-21T16:55:18.057Z,3.20
2022-11-21T16:58:05.787Z,2.28
2022-11-21T17:00:53.613Z,1.90
2022-11-21T17:03:47.368Z,1.70
2022-11-21T17:06:35.392Z,2.65
2022-11-21T17:09:23.219Z,2.40
2022-11-21T17:12:14.238Z,2.25
2022-11-21T17:15:01.932Z,2.00
2022-11-21T17:17:49.586Z,2.03
2022-11-21T17:20:37.585Z,1.52
2022-11-21T17:23:25.349Z,1.83
2022-11-21T17:26:15.482Z,2.30
2022-11-21T17:29:03.840Z,2.72
2022-11-21T17:31:54.086Z,4.25
2022-11-21T17:34:42.034Z,3.92
2022-11-21T17:37:29.651Z,2.67
2022-11-21T17:40:17.411Z,2.58
2022-11-21T17:43:05.618Z,2.30
2022-11-21T17:45:59.302Z,3.03
2022-11-21T17:48:54.562Z,3.70
2022-11-21T17:51:46.740Z,2.05
2022-11-21T17:54:34.462Z,3.15
2022-11-21T17:57:22.133Z,2.28
2022-11-21T18:00:10.532Z,2.50
2022-11-21T18:03:01.027Z,2.83
2022-11-21T18:05:51.803Z,3.05
2022-11-21T18:08:42.069Z,2.63
2022-11-21T18:11:37.608Z,2.60
2022-11-21T18:14:27.299Z,2.70
2022-11-21T18:17:15.283Z,3.28
2022-11-21T18:20:05.182Z,3.08
2022-11-21T18:22:53.890Z,2.97
2022-11-21T18:25:42.118Z,2.97
2022-11-21T18:28:30.027Z,3.03
2022-11-21T18:31:22.337Z,2.35
2022-11-21T18:36:58.263Z,2.53
2022-11-21T18:39:45.843Z,2.20
2022-11-21T18:42:33.507Z,2.28
2022-11-21T18:45:21.227Z,2.20
2022-11-21T18:48:08.947Z,3.25
2022-11-21T18:50:56.739Z,2.60
2022-11-21T18:53:44.984Z,3.42
2022-11-21T18:56:32.636Z,2.97
2022-11-21T18:59:20.397Z,3.13
2022-11-21T19:02:09.223Z,1.77
2022-11-21T19:04:56.941Z,2.47
2022-11-21T19:07:44.717Z,2.70
2022-11-21T19:10:47.556Z,2.35
2022-11-21T19:13:35.398Z,2.63
2022-11-21T19:16:25.152Z,2.33
2022-11-21T19:22:23.483Z,2.40
2022-11-21T19:25:11.137Z,2.70
2022-11-21T19:27:59.681Z,2.83
2022-11-21T19:30:47.326Z,3.08
2022-11-21T19:33:35.931Z,1.70
2022-11-21T19:36:24.518Z,2.55
2022-11-21T19:39:13.004Z,2.78
2022-11-21T19:42:00.732Z,4.15
2022-11-21T19:44:50.569Z,4.45
2022-11-21T19:47:38.310Z,4.53
2022-11-21T19:50:27.166Z,3.63
2022-11-21T19:53:14.917Z,4.18
2022-11-21T19:56:11.917Z,3.55
2022-11-21T19:59:01.685Z,3.35
2022-11-21T20:01:52.625Z,2.20
2022-11-21T20:04:40.876Z,2.72
2022-11-21T20:07:28.744Z,4.20
2022-11-21T20:10:16.715Z,2.55
2022-11-21T20:13:04.622Z,3.67
2022-11-21T20:15:52.364Z,5.00
2022-11-21T20:18:40.215Z,4.10
2022-11-21T20:21:28.409Z,3.50
2022-11-21T20:24:16.819Z,2.95
2022-11-21T20:27:04.529Z,4.55
2022-11-21T20:29:52.235Z,4.22
2022-11-21T20:32:41.269Z,3.63
2022-11-21T20:35:38.087Z,4.13
2022-11-21T20:38:28.364Z,3.60
2022-11-21T20:41:16.224Z,3.33
2022-11-21T20:47:18.837Z,3.80
2022-11-21T20:50:06.826Z,3.47
2022-11-21T20:56:04.842Z,3.70
2022-11-21T20:58:52.538Z,4.30
2022-11-21T21:01:40.570Z,4.07
2022-11-21T21:04:28.375Z,4.38
2022-11-21T21:07:16.104Z,3.78
2022-11-21T21:10:05.050Z,3.33
2022-11-21T21:12:53.343Z,2.95
2022-11-21T21:15:40.971Z,3.33
2022-11-21T21:18:28.687Z,2.78
2022-11-21T21:21:20.040Z,2.72
2022-11-21T21:24:10.185Z,3.27
2022-11-21T21:26:57.985Z,2.92
2022-11-21T21:29:45.644Z,3.15
2022-11-21T21:32:33.431Z,3.35
2022-11-21T21:35:21.199Z,3.78
2022-11-21T21:38:09.346Z,3.75
2022-11-21T21:40:56.960Z,3.20
2022-11-21T21:43:44.684Z,3.28
2022-11-21T21:46:32.418Z,3.30
2022-11-21T21:49:20.176Z,4.53
2022-11-21T21:52:08.033Z,4.70
2022-11-21T21:54:58.126Z,4.22
2022-11-21T21:57:51.085Z,3.05
2022-11-21T22:00:40.160Z,2.83
2022-11-21T22:03:27.869Z,3.10
2022-11-21T22:06:19.308Z,3.22
2022-11-21T22:09:07.098Z,4.20
2022-11-21T22:11:54.945Z,2.72
2022-11-21T22:14:42.580Z,2.75
2022-11-21T22:17:30.345Z,2.47
2022-11-21T22:20:20.582Z,3.15
2022-11-21T22:23:08.415Z,3.10
2022-11-21T22:25:57.539Z,3.67
2022-11-21T22:28:47.637Z,3.00
2022-11-21T22:31:35.331Z,2.28
2022-11-21T22:34:23.111Z,2.80
2022-11-21T22:37:10.851Z,2.08
2022-11-21T22:39:58.560Z,2.53
2022-11-21T22:42:46.136Z,3.15
2022-11-21T22:45:36.939Z,4.53
2022-11-21T22:48:24.849Z,5.05
2022-11-21T22:51:18.864Z,4.15
2022-11-21T22:54:06.742Z,3.15
2022-11-21T22:56:56.837Z,1.83
2022-11-21T22:59:45.470Z,2.25
2022-11-21T23:02:33.599Z,2.15
2022-11-21T23:05:21.258Z,1.60
2022-11-21T23:08:08.988Z,1.88
2022-11-21T23:11:05.031Z,2.58
2022-11-21T23:13:53.837Z,3.35
2022-11-21T23:16:41.519Z,2.97
2022-11-21T23:19:30.143Z,2.78
2022-11-21T23:22:18.409Z,2.88
2022-11-21T23:25:06.260Z,3.30
2022-11-21T23:27:53.868Z,2.50
2022-11-21T23:30:44.939Z,2.90
2022-11-21T23:33:32.651Z,2.55
2022-11-21T23:36:23.365Z,3.15
2022-11-21T23:39:11.798Z,2.30
2022-11-21T23:41:59.404Z,1.35
2022-11-21T23:44:47.892Z,2.00
2022-11-21T23:47:35.565Z,2.47
2022-11-21T23:50:23.304Z,2.60
2022-11-21T23:53:11.031Z,1.90
2022-11-21T23:55:58.706Z,2.25
2022-11-21T23:58:46.337Z,2.38
